Time;durP1;ratioP1;P1;durP2;ratioP2;P2;SDS_P1;SDS_P2;PMS_P1;PMS_P2;Temp;Humidity;BMP_temperature;BMP_pressure;BME280_temperature;BME280_humidity;BME280_pressure;Samples;Min_cycle;Max_cycle;Signal;HPM_P1;HPM_P2
2022/11/14 00:00:54;;;;;;;24.05;22.25;;;;;;;10.92;58.77;101421.25;5049687;28;20035;-73
2022/11/14 00:03:19;;;;;;;23.33;21.50;;;;;;;10.92;58.92;101426.66;5051388;28;20095;-72
2022/11/14 00:05:45;;;;;;;25.58;23.48;;;;;;;10.91;58.83;101425.00;5047572;28;20465;-72
2022/11/14 00:08:19;;;;;;;24.60;22.75;;;;;;;10.90;58.85;101426.06;5035121;28;20033;-72
2022/11/14 00:10:46;;;;;;;24.33;22.38;;;;;;;10.88;58.75;101420.06;5042380;28;20029;-72
2022/11/14 00:13:13;;;;;;;26.38;23.70;;;;;;;10.88;58.65;101422.75;5034926;28;20477;-72
2022/11/14 00:15:38;;;;;;;25.02;23.23;;;;;;;10.87;58.69;101421.13;5038570;28;20397;-73
2022/11/14 00:18:03;;;;;;;26.10;24.23;;;;;;;10.85;58.68;101418.63;5034801;28;20037;-72
2022/11/14 00:20:29;;;;;;;26.48;24.42;;;;;;;10.84;58.99;101422.41;5041441;28;20033;-72
2022/11/14 00:22:54;;;;;;;25.75;23.45;;;;;;;10.83;58.78;101423.44;5050335;28;20044;-73
2022/11/14 00:25:19;;;;;;;25.13;23.35;;;;;;;10.82;58.82;101421.78;5052091;28;20041;-73
2022/11/14 00:27:45;;;;;;;23.33;21.83;;;;;;;10.82;58.70;101422.63;5039075;28;20462;-73
2022/11/14 00:30:10;;;;;;;25.25;23.48;;;;;;;10.81;58.73;101420.16;5045182;28;20390;-72
2022/11/14 00:32:35;;;;;;;23.92;22.02;;;;;;;10.80;58.91;101423.88;5051294;28;20381;-72
2022/11/14 00:35:01;;;;;;;25.65;23.23;;;;;;;10.78;59.15;101417.88;5044141;28;20034;-72
2022/11/14 00:37:26;;;;;;;26.10;23.95;;;;;;;10.77;58.76;101417.06;5050204;28;20036;-72
2022/11/14 00:39:52;;;;;;;23.85;22.05;;;;;;;10.76;58.68;101412.72;5043828;28;20036;-72
2022/11/14 00:42:17;;;;;;;23.58;21.75;;;;;;;10.76;59.08;101414.56;5053062;28;20059;-72
2022/11/14 00:44:42;;;;;;;23.92;22.02;;;;;;;10.75;58.71;101412.94;5040480;28;20034;-72
2022/11/14 00:47:08;;;;;;;25.08;23.20;;;;;;;10.73;58.69;101407.75;5049884;28;20075;-73
2022/11/14 00:49:33;;;;;;;23.45;21.65;;;;;;;10.71;58.80;101404.47;5040885;28;20466;-72
2022/11/14 00:51:58;;;;;;;24.67;22.48;;;;;;;10.71;58.88;101404.47;5067172;28;20068;-72
2022/11/14 00:54:25;;;;;;;23.27;21.63;;;;;;;10.71;58.73;101404.47;5052745;28;20040;-73
2022/11/14 00:56:50;;;;;;;23.42;21.70;;;;;;;10.70;58.76;101408.22;5049757;28;20090;-72
2022/11/14 00:59:16;;;;;;;22.85;21.00;;;;;;;10.69;58.78;101390.38;5049738;28;20041;-72
2022/11/14 01:01:41;;;;;;;25.77;23.77;;;;;;;10.67;58.67;101389.75;5041298;28;20033;-72
2022/11/14 01:04:06;;;;;;;22.27;20.67;;;;;;;10.67;58.69;101387.06;5041998;28;20048;-72
2022/11/14 01:06:32;;;;;;;24.77;22.70;;;;;;;10.66;58.79;101379.16;5048100;28;20033;-72
2022/11/14 01:08:57;;;;;;;24.17;22.05;;;;;;;10.65;58.51;101381.06;5043576;28;20124;-73
2022/11/14 01:11:22;;;;;;;24.73;22.77;;;;;;;10.65;58.75;101377.53;5037743;28;20041;-72
2022/11/14 01:13:48;;;;;;;23.45;21.75;;;;;;;10.63;58.72;101374.22;5051447;28;20373;-72
2022/11/14 01:16:13;;;;;;;22.80;21.08;;;;;;;10.62;58.69;101370.72;5050592;28;20091;-72
2022/11/14 01:18:40;;;;;;;23.77;22.08;;;;;;;10.61;58.65;101366.38;5052536;28;20025;-72
2022/11/14 01:21:07;;;;;;;23.98;22.17;;;;;;;10.60;58.68;101367.41;5046886;28;20068;-72
2022/11/14 01:23:33;;;;;;;25.83;23.55;;;;;;;10.59;58.59;101360.38;5044472;28;20505;-72
2022/11/14 01:26:07;;;;;;;23.13;21.40;;;;;;;10.58;58.74;101362.25;5052343;28;20045;-72
2022/11/14 01:28:33;;;;;;;24.20;22.23;;;;;;;10.57;58.70;101357.06;5047964;28;20493;-73
2022/11/14 01:31:21;;;;;;;22.48;20.88;;;;;;;10.57;58.76;101348.94;5053274;28;20065;-72
2022/11/14 01:33:51;;;;;;;23.60;21.63;;;;;;;10.55;58.64;101351.06;5043438;28;20477;-73
2022/11/14 01:36:17;;;;;;;23.48;21.77;;;;;;;10.53;58.60;101355.84;5044865;28;20029;-73
2022/11/14 01:38:42;;;;;;;24.30;22.52;;;;;;;10.52;58.31;101346.94;5047168;28;20030;-73
2022/11/14 01:41:11;;;;;;;23.65;21.77;;;;;;;10.51;58.65;101345.28;5039789;28;20456;-74
2022/11/14 01:43:38;;;;;;;23.63;21.88;;;;;;;10.51;58.53;101347.19;5038956;28;21370;-71
2022/11/14 01:46:12;;;;;;;23.10;21.40;;;;;;;10.49;58.27;101331.19;5049814;28;20035;-73
2022/11/14 01:48:55;;;;;;;23.30;21.58;;;;;;;10.48;58.33;101331.41;5050041;28;20037;-72
2022/11/14 01:51:27;;;;;;;23.00;21.50;;;;;;;10.47;58.66;101343.25;5044578;28;20104;-72
2022/11/14 01:53:55;;;;;;;22.25;20.58;;;;;;;10.46;58.55;101339.75;5037442;28;20025;-71
2022/11/14 01:56:26;;;;;;;23.10;21.37;;;;;;;10.46;58.51;101349.69;5050375;28;20033;-71
2022/11/14 01:58:59;;;;;;;22.50;21.00;;;;;;;10.44;58.54;101341.03;5043026;28;20809;-72
2022/11/14 02:01:27;;;;;;;22.67;21.10;;;;;;;10.43;58.39;101329.38;5042890;28;20029;-72
2022/11/14 02:03:54;;;;;;;21.83;20.17;;;;;;;10.43;58.63;101325.84;5035226;28;20040;-72
2022/11/14 02:06:22;;;;;;;23.33;21.50;;;;;;;10.42;58.28;101329.63;5041345;28;20490;-71
2022/11/14 02:08:49;;;;;;;24.57;22.77;;;;;;;10.41;58.53;101326.09;5047226;28;20031;-71
2022/11/14 02:11:15;;;;;;;23.73;21.85;;;;;;;10.40;58.40;101319.03;5038987;28;20030;-71
2022/11/14 02:13:40;;;;;;;25.52;23.15;;;;;;;10.39;58.58;101323.63;5040533;28;20035;-71
2022/11/14 02:16:06;;;;;;;22.40;20.80;;;;;;;10.38;58.57;101327.38;5046201;28;20043;-71
2022/11/14 02:18:31;;;;;;;22.83;21.27;;;;;;;10.36;58.56;101324.06;5050647;28;20446;-72
2022/11/14 02:20:56;;;;;;;23.83;21.85;;;;;;;10.36;58.41;101321.38;5050525;28;20570;-72
2022/11/14 02:23:27;;;;;;;23.60;21.90;;;;;;;10.35;58.47;101313.50;5042317;28;20462;-72
2022/11/14 02:25:53;;;;;;;22.20;20.67;;;;;;;10.33;58.69;101311.03;5045317;28;20033;-72
2022/11/14 02:28:20;;;;;;;23.50;21.67;;;;;;;10.32;58.48;101303.97;5034750;28;20040;-72
2022/11/14 02:30:45;;;;;;;25.25;23.23;;;;;;;10.31;58.45;101304.22;5046446;28;20044;-72
2022/11/14 02:33:11;;;;;;;24.33;22.63;;;;;;;10.31;58.43;101306.91;5038528;28;20059;-72
2022/11/14 02:35:36;;;;;;;24.90;22.10;;;;;;;10.31;58.49;101301.50;5048859;28;20033;-73
2022/11/14 02:38:02;;;;;;;23.35;21.52;;;;;;;10.29;58.56;101295.50;5035634;28;20037;-72
2022/11/14 02:40:27;;;;;;;23.52;21.92;;;;;;;10.28;58.37;101289.28;5035232;28;20082;-73
2022/11/14 02:42:52;;;;;;;23.23;21.42;;;;;;;10.27;58.55;101293.00;5044329;28;20041;-72
2022/11/14 02:45:19;;;;;;;21.77;20.33;;;;;;;10.26;58.55;101283.25;5042834;28;20045;-72
2022/11/14 02:47:45;;;;;;;22.83;21.20;;;;;;;10.25;58.55;101283.47;5050620;28;20075;-72
2022/11/14 02:50:10;;;;;;;21.67;20.08;;;;;;;10.24;58.48;101279.13;5046756;28;20033;-72
2022/11/14 02:52:36;;;;;;;25.10;20.55;;;;;;;10.22;58.61;101279.34;5044536;28;20044;-73
2022/11/14 02:55:02;;;;;;;22.27;20.63;;;;;;;10.20;58.42;101281.44;5038479;28;20033;-72
2022/11/14 02:57:27;;;;;;;23.00;21.40;;;;;;;10.19;58.50;101272.53;5044001;28;20489;-72
2022/11/14 02:59:53;;;;;;;23.92;22.08;;;;;;;10.18;58.52;101279.00;5043577;28;20086;-73
2022/11/14 03:02:18;;;;;;;24.45;22.48;;;;;;;10.18;58.38;101283.56;5048192;28;20055;-73
2022/11/14 03:04:43;;;;;;;21.80;20.23;;;;;;;10.17;58.36;101287.31;5051422;28;20033;-70
2022/11/14 03:07:09;;;;;;;22.35;20.75;;;;;;;10.17;58.39;101281.91;5041859;28;20091;-72
2022/11/14 03:09:34;;;;;;;21.73;20.27;;;;;;;10.14;58.28;101271.56;5040413;28;20038;-72
2022/11/14 03:11:59;;;;;;;23.70;22.08;;;;;;;10.13;58.36;101270.75;5042842;28;20374;-72
2022/11/14 03:14:25;;;;;;;22.67;21.08;;;;;;;10.13;58.46;101272.59;5044302;28;20501;-72
2022/11/14 03:16:50;;;;;;;24.05;22.33;;;;;;;10.12;58.41;101260.16;5044764;28;20457;-72
2022/11/14 03:19:16;;;;;;;22.90;21.33;;;;;;;10.10;58.37;101260.38;5053875;28;20041;-71
2022/11/14 03:21:41;;;;;;;22.50;20.70;;;;;;;10.09;58.30;101256.03;5049349;28;20120;-72
2022/11/14 03:24:06;;;;;;;22.35;20.85;;;;;;;10.08;58.45;101256.25;5049130;28;20499;-72
2022/11/14 03:26:32;;;;;;;22.60;21.10;;;;;;;10.06;58.48;101245.72;5039271;28;20116;-72
2022/11/14 03:28:57;;;;;;;22.70;20.95;;;;;;;10.06;58.18;101253.81;5050167;28;20444;-72
2022/11/14 03:31:22;;;;;;;21.83;20.23;;;;;;;10.05;58.36;101251.31;5035528;28;20447;-72
2022/11/14 03:33:48;;;;;;;23.45;21.75;;;;;;;10.03;58.40;101253.41;5052777;28;20048;-72
2022/11/14 03:36:14;;;;;;;22.90;21.30;;;;;;;10.02;58.34;101247.19;5053517;28;20064;-71
2022/11/14 03:38:39;;;;;;;21.63;20.13;;;;;;;10.01;58.42;101245.56;5053247;28;20068;-72
2022/11/14 03:41:04;;;;;;;21.80;20.20;;;;;;;10.00;58.44;101246.59;5053608;28;20032;-72
2022/11/14 03:43:32;;;;;;;21.15;19.58;;;;;;;9.99;58.31;101239.56;5054010;28;20392;-72
2022/11/14 03:45:59;;;;;;;24.67;22.73;;;;;;;9.98;58.45;101240.63;5048942;28;20037;-72
2022/11/14 03:48:25;;;;;;;21.88;20.38;;;;;;;9.97;58.58;101247.88;5047662;28;20140;-72
2022/11/14 03:50:50;;;;;;;21.42;19.80;;;;;;;9.96;58.33;101242.72;5047235;28;20456;-72
2022/11/14 03:53:16;;;;;;;21.73;20.23;;;;;;;9.95;58.40;101241.06;5043780;28;20067;-72
2022/11/14 03:55:44;;;;;;;21.65;19.92;;;;;;;9.94;58.48;101242.13;5050852;28;20033;-72
2022/11/14 03:58:09;;;;;;;21.88;19.95;;;;;;;9.93;58.39;101240.47;5033499;28;20083;-72
2022/11/14 04:00:35;;;;;;;21.00;19.70;;;;;;;9.92;58.09;101238.81;5059641;28;20488;-72
2022/11/14 04:03:00;;;;;;;22.23;20.55;;;;;;;9.90;58.08;101241.75;5050067;28;20184;-72
2022/11/14 04:05:26;;;;;;;21.15;19.65;;;;;;;9.89;58.31;101236.56;5047786;28;20045;-72
2022/11/14 04:07:51;;;;;;;22.83;21.13;;;;;;;9.89;58.25;101233.88;5052615;28;20037;-72
2022/11/14 04:10:17;;;;;;;22.02;20.27;;;;;;;9.87;58.29;101223.31;5054324;28;20466;-72
2022/11/14 04:12:52;;;;;;;22.63;20.95;;;;;;;9.87;58.08;101231.41;5053421;28;20037;-72
2022/11/14 04:15:19;;;;;;;21.13;19.75;;;;;;;9.85;58.19;101228.13;5052350;28;20036;-72
2022/11/14 04:17:45;;;;;;;20.70;19.20;;;;;;;9.84;58.21;101226.47;5051183;28;20033;-72
2022/11/14 04:20:12;;;;;;;20.75;19.35;;;;;;;9.84;58.21;101226.47;5043626;28;20389;-72
2022/11/14 04:22:38;;;;;;;20.85;19.38;;;;;;;9.83;58.28;101224.00;5046322;28;20554;-72
2022/11/14 04:25:04;;;;;;;21.63;19.55;;;;;;;9.82;58.04;101219.63;5052420;28;20029;-71
2022/11/14 04:27:30;;;;;;;20.27;18.92;;;;;;;9.81;58.74;101218.00;5047694;28;20084;-72
2022/11/14 04:29:55;;;;;;;23.70;22.00;;;;;;;9.79;58.33;101212.81;5045861;28;20037;-72
2022/11/14 04:32:20;;;;;;;23.30;21.55;;;;;;;9.79;58.39;101207.41;5044679;28;20106;-72
2022/11/14 04:34:46;;;;;;;22.75;20.95;;;;;;;9.77;58.32;101203.31;5043381;28;20036;-72
2022/11/14 04:37:11;;;;;;;20.17;18.88;;;;;;;9.76;58.44;101210.59;5052638;28;20029;-72
2022/11/14 04:39:37;;;;;;;21.73;20.23;;;;;;;9.75;58.20;101200.81;5052785;28;20041;-73
2022/11/14 04:42:02;;;;;;;21.25;19.65;;;;;;;9.75;58.36;101206.22;5052753;28;20033;-72
2022/11/14 04:44:28;;;;;;;22.33;19.50;;;;;;;9.73;57.99;101202.94;5048731;28;20505;-72
2022/11/14 04:46:53;;;;;;;23.08;21.25;;;;;;;9.72;58.19;101196.69;5042153;28;20085;-72
2022/11/14 04:49:18;;;;;;;21.50;20.00;;;;;;;9.71;58.27;101188.84;5036173;28;20109;-72
2022/11/14 04:51:44;;;;;;;21.48;19.98;;;;;;;9.70;58.29;101184.50;5047369;28;20526;-72
2022/11/14 04:54:10;;;;;;;21.42;19.98;;;;;;;9.69;58.28;101183.69;5046233;28;20135;-72
2022/11/14 04:56:35;;;;;;;19.45;18.15;;;;;;;9.68;58.33;101190.13;5035414;28;20469;-72
2022/11/14 04:59:01;;;;;;;21.95;20.20;;;;;;;9.67;58.28;101190.34;5051449;28;20385;-72
2022/11/14 05:01:26;;;;;;;22.40;20.35;;;;;;;9.66;58.28;101183.31;5047368;28;20382;-71
2022/11/14 05:03:51;;;;;;;19.98;18.52;;;;;;;9.65;58.24;101174.41;5042840;28;20044;-72
2022/11/14 05:06:20;;;;;;;21.33;19.85;;;;;;;9.64;58.33;101180.00;5041298;28;20492;-72
2022/11/14 05:08:45;;;;;;;20.55;19.08;;;;;;;9.63;58.17;101181.88;5049335;28;20104;-72
2022/11/14 05:11:14;;;;;;;20.63;19.20;;;;;;;9.62;58.20;101177.53;5049711;28;20079;-72
2022/11/14 05:13:39;;;;;;;21.27;19.80;;;;;;;9.61;58.28;101180.47;5051102;28;20047;-72
2022/11/14 05:16:04;;;;;;;21.45;19.85;;;;;;;9.59;58.39;101172.59;5033482;28;20037;-72
2022/11/14 05:18:30;;;;;;;22.20;20.67;;;;;;;9.58;58.28;101170.97;5044327;28;20036;-72
2022/11/14 05:20:58;;;;;;;21.23;19.75;;;;;;;9.58;58.18;101172.84;5039832;28;20110;-72
2022/11/14 05:23:23;;;;;;;22.42;21.02;;;;;;;9.56;58.17;101164.13;5046746;28;20481;-72
2022/11/14 05:26:03;;;;;;;21.30;19.02;;;;;;;9.56;58.25;101161.44;5049029;28;20128;-72
2022/11/14 05:28:28;;;;;;;20.80;19.35;;;;;;;9.54;58.20;101158.97;5045285;28;21423;-72
2022/11/14 05:31:03;;;;;;;21.52;19.77;;;;;;;9.54;58.19;101172.44;5044807;28;20111;-72
2022/11/14 05:33:29;;;;;;;21.45;19.80;;;;;;;9.52;58.12;101155.66;5048438;28;20396;-72
2022/11/14 05:35:54;;;;;;;21.63;20.15;;;;;;;9.51;58.28;101164.81;5044910;28;20041;-73
2022/11/14 05:38:19;;;;;;;20.42;19.05;;;;;;;9.51;58.27;101165.63;5041027;28;20112;-71
2022/11/14 05:40:45;;;;;;;21.35;19.77;;;;;;;9.49;57.99;101162.31;5050681;28;20037;-72
2022/11/14 05:43:10;;;;;;;22.38;20.63;;;;;;;9.48;58.17;101167.97;5035484;28;20513;-71
2022/11/14 05:45:35;;;;;;;21.58;20.17;;;;;;;9.47;57.93;101159.03;5039508;28;20048;-72
2022/11/14 05:48:01;;;;;;;20.77;19.23;;;;;;;9.46;58.17;101157.38;5032772;28;20210;-72
2022/11/14 05:50:26;;;;;;;21.08;19.73;;;;;;;9.45;58.24;101161.16;5038747;28;20112;-73
2022/11/14 05:52:52;;;;;;;21.15;19.35;;;;;;;9.45;58.28;101157.59;5032753;28;20114;-73
2022/11/14 05:55:17;;;;;;;20.02;18.73;;;;;;;9.44;58.13;101169.44;5034190;28;20425;-73
2022/11/14 05:57:42;;;;;;;20.35;18.83;;;;;;;9.42;57.99;101158.06;5045355;28;20033;-73
2022/11/14 06:00:08;;;;;;;21.02;19.42;;;;;;;9.41;58.25;101159.94;5032145;28;20038;-73
2022/11/14 06:02:34;;;;;;;18.73;17.38;;;;;;;9.41;58.27;101164.50;5032659;28;20040;-73
2022/11/14 06:04:59;;;;;;;20.40;18.88;;;;;;;9.40;58.20;101170.94;5047696;28;20025;-73
2022/11/14 06:07:25;;;;;;;20.13;18.83;;;;;;;9.39;58.15;101175.50;5050844;28;20120;-73
2022/11/14 06:09:50;;;;;;;21.85;20.25;;;;;;;9.37;58.03;101176.78;5051510;28;20037;-73
2022/11/14 06:12:15;;;;;;;21.05;19.35;;;;;;;9.36;58.15;101177.84;5038105;28;20033;-73
2022/11/14 06:14:41;;;;;;;20.08;18.60;;;;;;;9.35;58.13;101171.63;5037759;28;20034;-73
2022/11/14 06:17:06;;;;;;;22.70;21.13;;;;;;;9.34;57.83;101164.56;5040473;28;20044;-72
2022/11/14 06:19:32;;;;;;;20.30;18.80;;;;;;;9.34;58.17;101169.97;5051089;28;20365;-73
2022/11/14 06:21:57;;;;;;;20.00;18.63;;;;;;;9.32;58.29;101158.56;5050947;28;20037;-73
2022/11/14 06:24:22;;;;;;;20.83;19.02;;;;;;;9.31;58.24;101159.63;5046391;28;20481;-73
2022/11/14 06:26:48;;;;;;;19.50;18.10;;;;;;;9.30;58.30;101164.22;5048701;28;20106;-72
2022/11/14 06:29:13;;;;;;;23.00;21.40;;;;;;;9.28;58.19;101160.91;5044569;28;20060;-73
2022/11/14 06:31:38;;;;;;;19.95;18.55;;;;;;;9.28;57.95;101165.47;5045247;28;20037;-73
2022/11/14 06:34:05;;;;;;;20.23;18.75;;;;;;;9.27;57.87;101169.22;5038731;28;20049;-73
2022/11/14 06:36:30;;;;;;;20.77;18.80;;;;;;;9.25;57.96;101163.25;5055618;28;20025;-74
2022/11/14 06:38:55;;;;;;;20.08;18.80;;;;;;;9.24;58.07;101165.09;5050720;28;20036;-73
2022/11/14 06:41:21;;;;;;;19.75;18.30;;;;;;;9.24;57.97;101170.47;5036001;28;20041;-74
2022/11/14 06:43:49;;;;;;;21.33;19.60;;;;;;;9.22;58.17;101160.97;5046185;28;20465;-72
2022/11/14 06:46:17;;;;;;;20.52;18.83;;;;;;;9.22;58.23;101163.66;5037947;28;20032;-73
2022/11/14 06:48:43;;;;;;;19.25;17.92;;;;;;;9.20;58.06;101155.00;5058650;28;20041;-74
2022/11/14 06:51:10;;;;;;;21.15;19.65;;;;;;;9.19;57.95;101161.41;5049734;28;20025;-73
2022/11/14 06:53:36;;;;;;;20.27;18.77;;;;;;;9.19;58.07;101156.03;5043427;28;20041;-72
2022/11/14 06:56:02;;;;;;;20.00;18.50;;;;;;;9.17;58.14;101160.81;5045914;28;20102;-74
2022/11/14 06:58:30;;;;;;;19.92;18.60;;;;;;;9.16;58.12;101165.38;5046035;28;20036;-72
2022/11/14 07:01:03;;;;;;;22.23;20.52;;;;;;;9.16;57.97;101175.34;5047165;28;20087;-72
2022/11/14 07:03:28;;;;;;;21.23;19.73;;;;;;;9.15;58.00;101173.69;5045241;28;20056;-74
2022/11/14 07:05:57;;;;;;;19.73;18.30;;;;;;;9.14;57.99;101169.34;5050072;28;20073;-73
2022/11/14 07:08:22;;;;;;;20.35;18.45;;;;;;;9.12;57.96;101174.13;5048203;28;20029;-72
2022/11/14 07:10:47;;;;;;;20.35;18.95;;;;;;;9.10;57.96;101171.69;5046885;28;20029;-71
2022/11/14 07:13:13;;;;;;;20.67;18.75;;;;;;;9.09;58.16;101170.00;5040835;28;20040;-74
2022/11/14 07:15:38;;;;;;;20.42;19.02;;;;;;;9.07;57.88;101170.25;5049961;28;20063;-73
2022/11/14 07:18:04;;;;;;;20.13;18.58;;;;;;;9.07;58.07;101175.66;5050904;28;20044;-74
2022/11/14 07:20:29;;;;;;;20.38;18.92;;;;;;;9.06;57.96;101171.28;5040645;28;20091;-74
2022/11/14 07:22:55;;;;;;;19.38;17.95;;;;;;;9.06;57.99;101167.78;5046599;28;20025;-73
2022/11/14 07:25:21;;;;;;;22.00;20.15;;;;;;;9.04;58.15;101156.38;5046529;28;20393;-72
2022/11/14 07:27:47;;;;;;;21.80;19.90;;;;;;;9.04;58.14;101164.47;5034295;28;20473;-73
2022/11/14 07:30:12;;;;;;;21.88;20.27;;;;;;;9.02;58.19;101163.84;5045969;28;20392;-71
2022/11/14 07:32:38;;;;;;;20.95;19.23;;;;;;;9.01;57.98;101168.44;5047767;28;20065;-71
2022/11/14 07:35:03;;;;;;;21.63;19.67;;;;;;;9.00;58.00;101172.19;5042166;28;20029;-71
2022/11/14 07:37:29;;;;;;;19.88;18.38;;;;;;;8.98;58.35;101168.88;5044179;28;20578;-72
2022/11/14 07:39:54;;;;;;;19.70;18.30;;;;;;;8.98;57.83;101171.56;5045581;28;20063;-75
2022/11/14 07:42:19;;;;;;;25.80;23.58;;;;;;;8.97;57.88;101164.56;5042903;28;20802;-75
2022/11/14 07:44:45;;;;;;;19.70;18.25;;;;;;;8.96;58.08;101168.28;5045741;28;20384;-73
2022/11/14 07:47:10;;;;;;;19.05;17.70;;;;;;;8.95;58.03;101163.13;5045612;28;20393;-74
2022/11/14 07:49:36;;;;;;;20.45;19.05;;;;;;;8.94;57.83;101159.59;5041794;28;20025;-74
2022/11/14 07:52:01;;;;;;;19.83;18.42;;;;;;;8.94;58.08;101153.38;5044515;28;20096;-72
2022/11/14 07:54:26;;;;;;;19.63;18.23;;;;;;;8.92;57.94;101153.63;5047042;28;20354;-73
2022/11/14 07:56:52;;;;;;;20.83;19.33;;;;;;;8.91;57.96;101145.75;5044424;28;20041;-73
2022/11/14 07:59:17;;;;;;;20.63;18.80;;;;;;;8.90;57.92;101146.81;5046202;28;20061;-73
2022/11/14 08:01:42;;;;;;;20.25;18.75;;;;;;;8.89;58.14;101145.94;5048177;28;20033;-75
2022/11/14 08:04:08;;;;;;;21.23;19.50;;;;;;;8.88;58.01;101150.53;5049853;28;20104;-72
2022/11/14 08:06:33;;;;;;;19.58;18.08;;;;;;;8.88;57.82;101147.00;5049523;28;20129;-73
2022/11/14 08:08:58;;;;;;;19.23;17.92;;;;;;;8.86;57.96;101146.41;5050445;28;20060;-74
2022/11/14 08:14:08;;;;;;;20.38;18.50;;;;;;;8.83;57.92;101144.16;5049990;28;20056;-72
2022/11/14 08:16:33;;;;;;;21.10;19.48;;;;;;;8.82;57.86;101143.34;5045763;28;20025;-73
2022/11/14 08:18:59;;;;;;;19.60;18.17;;;;;;;8.80;58.39;101140.03;5043103;28;20521;-73
2022/11/14 08:21:24;;;;;;;21.42;19.63;;;;;;;8.82;57.86;101142.50;5045856;28;20025;-73
2022/11/14 08:23:50;;;;;;;19.98;18.42;;;;;;;8.80;58.08;101133.81;5046982;28;20038;-73
2022/11/14 08:26:15;;;;;;;20.80;19.10;;;;;;;8.79;57.84;101129.47;5047227;28;20112;-71
2022/11/14 08:28:40;;;;;;;21.05;18.80;;;;;;;8.78;58.33;101123.25;5047297;28;20060;-71
2022/11/14 08:31:06;;;;;;;19.45;17.77;;;;;;;8.77;58.06;101113.56;5046601;28;20469;-71
2022/11/14 08:33:31;;;;;;;20.10;18.42;;;;;;;8.77;57.99;101115.38;5046293;28;20044;-73
2022/11/14 08:36:04;;;;;;;20.95;19.25;;;;;;;8.76;58.03;101113.75;5047911;28;20032;-73
2022/11/14 08:38:31;;;;;;;21.23;19.60;;;;;;;8.76;58.16;101116.44;5047684;28;20029;-73
2022/11/14 08:40:58;;;;;;;18.92;17.38;;;;;;;8.74;57.73;101113.97;5046762;28;20029;-74
2022/11/14 08:43:23;;;;;;;20.55;19.02;;;;;;;8.73;57.95;101117.72;5046339;28;20040;-72
2022/11/14 08:45:48;;;;;;;19.17;17.67;;;;;;;8.73;58.32;101108.81;5047944;28;20513;-72
2022/11/14 08:48:14;;;;;;;20.45;19.05;;;;;;;8.71;58.04;101105.53;5046721;28;20033;-73
2022/11/14 08:50:39;;;;;;;20.92;19.13;;;;;;;8.71;57.98;101100.94;5046935;28;20104;-73
2022/11/14 08:53:05;;;;;;;20.23;18.92;;;;;;;8.70;58.18;101102.00;5043214;28;20056;-73
2022/11/14 08:55:30;;;;;;;23.58;21.75;;;;;;;8.70;58.18;101103.88;5044787;28;20033;-72
2022/11/14 08:57:55;;;;;;;19.90;18.42;;;;;;;8.70;58.16;101101.19;5047424;28;20052;-71
2022/11/14 09:00:23;;;;;;;21.52;19.77;;;;;;;8.69;57.82;101108.41;5048206;28;20083;-71
2022/11/14 09:02:49;;;;;;;20.23;18.80;;;;;;;8.69;57.83;101107.59;5047094;28;20336;-72
2022/11/14 09:05:14;;;;;;;20.75;18.95;;;;;;;8.66;58.32;101107.00;5047545;28;20314;-72
2022/11/14 09:07:40;;;;;;;21.90;20.02;;;;;;;8.65;58.20;101105.34;5047883;28;20052;-70
2022/11/14 09:10:06;;;;;;;20.15;18.73;;;;;;;8.65;58.01;101099.16;5045138;28;20056;-73
2022/11/14 09:12:32;;;;;;;21.77;19.98;;;;;;;8.64;58.38;101094.78;5040338;28;20025;-74
2022/11/14 09:14:57;;;;;;;19.52;17.92;;;;;;;8.65;58.05;101096.47;5045216;28;20527;-71
2022/11/14 09:17:23;;;;;;;20.67;18.95;;;;;;;8.64;58.17;101089.41;5047160;28;20029;-74
2022/11/14 09:19:48;;;;;;;18.77;17.27;;;;;;;8.63;57.97;101088.59;5046723;28;20040;-72
2022/11/14 09:22:14;;;;;;;19.27;17.77;;;;;;;8.63;57.99;101085.09;5046429;28;20638;-72
2022/11/14 09:24:39;;;;;;;19.05;17.55;;;;;;;8.62;58.36;101086.13;5048085;28;20025;-73
2022/11/14 09:27:05;;;;;;;19.52;17.90;;;;;;;8.61;58.25;101093.38;5048246;28;20126;-73
2022/11/14 09:29:30;;;;;;;20.45;18.85;;;;;;;8.62;58.02;101086.13;5044085;28;20045;-72
2022/11/14 09:31:56;;;;;;;19.48;18.00;;;;;;;8.62;58.10;101086.13;5042944;28;20128;-72
2022/11/14 09:34:21;;;;;;;20.98;19.40;;;;;;;8.61;58.28;101085.28;5046754;28;20033;-73
2022/11/14 09:36:46;;;;;;;20.27;18.77;;;;;;;8.60;58.38;101086.34;5043762;28;20033;-74
2022/11/14 09:39:12;;;;;;;19.33;17.92;;;;;;;8.60;58.26;101080.97;5046395;28;20048;-74
2022/11/14 09:41:55;;;;;;;20.27;18.55;;;;;;;8.60;58.03;101083.66;5045178;28;20037;-72
2022/11/14 09:45:01;;;;;;;18.70;17.33;;;;;;;8.59;58.28;101094.63;5046515;28;20465;-73
2022/11/14 09:47:37;;;;;;;19.63;18.02;;;;;;;8.58;58.02;101091.13;5043837;28;20035;-73
2022/11/14 09:50:27;;;;;;;17.95;16.55;;;;;;;8.57;58.30;101100.25;5044204;28;20535;-72
2022/11/14 09:52:59;;;;;;;19.70;18.15;;;;;;;8.56;58.13;101095.91;5045651;28;20033;-71
2022/11/14 09:55:28;;;;;;;21.70;20.00;;;;;;;8.56;58.12;101090.50;5045763;28;20029;-73
2022/11/14 09:57:55;;;;;;;19.00;17.70;;;;;;;8.56;58.33;101090.50;5045330;28;20061;-73
2022/11/14 10:00:27;;;;;;;18.77;17.17;;;;;;;8.58;58.12;101084.91;5045938;28;20036;-73
2022/11/14 10:03:11;;;;;;;19.73;18.15;;;;;;;8.56;58.23;101077.06;5045746;28;20052;-72
2022/11/14 10:05:48;;;;;;;20.70;19.02;;;;;;;8.55;58.20;101072.72;5041335;28;20074;-74
2022/11/14 10:08:30;;;;;;;18.35;16.95;;;;;;;8.56;58.28;101068.16;5043563;28;20094;-73
2022/11/14 10:11:12;;;;;;;19.98;18.48;;;;;;;8.56;58.15;101065.47;5047634;28;20032;-73
2022/11/14 10:13:52;;;;;;;22.92;21.05;;;;;;;8.55;58.28;101061.94;5044524;28;20036;-72
2022/11/14 10:16:35;;;;;;;19.20;17.75;;;;;;;8.55;58.24;101067.34;5042681;28;20032;-73
2022/11/14 10:19:25;;;;;;;19.70;18.15;;;;;;;8.55;58.36;101063.81;5045131;28;20033;-73
2022/11/14 10:22:11;;;;;;;19.50;17.90;;;;;;;8.55;58.29;101066.53;5045395;28;20044;-73
2022/11/14 10:25:08;;;;;;;19.55;17.95;;;;;;;8.55;58.27;101061.13;5042136;28;20040;-73
2022/11/14 10:28:18;;;;;;;20.38;18.65;;;;;;;8.53;58.50;101053.28;5016378;28;20068;-74
2022/11/14 10:31:25;;;;;;;20.65;19.05;;;;;;;8.53;58.45;101053.28;4990308;28;20065;-74
2022/11/14 10:34:17;;;;;;;18.13;16.92;;;;;;;8.53;58.38;101047.06;4995153;28;20053;-74
2022/11/14 10:36:48;;;;;;;21.77;19.83;;;;;;;8.54;58.25;101054.09;5043791;28;20033;-75
2022/11/14 10:39:42;;;;;;;19.00;17.45;;;;;;;8.53;58.52;101050.56;5045266;28;20033;-75
2022/11/14 10:42:28;;;;;;;19.52;18.15;;;;;;;8.53;58.50;101047.88;5035945;28;20132;-76
2022/11/14 10:45:40;;;;;;;18.15;16.63;;;;;;;8.54;58.50;101049.56;5045196;28;20025;-77
2022/11/14 10:48:28;;;;;;;18.63;17.17;;;;;;;8.54;58.47;101038.78;5041609;28;20083;-73
2022/11/14 10:50:59;;;;;;;18.88;17.20;;;;;;;8.54;58.31;101033.41;5046388;28;20140;-74
2022/11/14 10:53:59;;;;;;;18.27;16.92;;;;;;;8.56;58.38;101038.53;5047305;28;20045;-70
2022/11/14 10:56:24;;;;;;;18.98;17.38;;;;;;;8.55;58.30;101035.03;5047250;28;20480;-73
2022/11/14 10:58:50;;;;;;;20.83;19.23;;;;;;;8.55;58.37;101036.91;5046976;28;20041;-72
2022/11/14 11:01:40;;;;;;;20.20;18.73;;;;;;;8.57;58.67;101029.44;5048407;28;20041;-72
2022/11/14 11:04:26;;;;;;;19.08;17.45;;;;;;;8.57;58.40;101038.31;5046500;28;20032;-72
2022/11/14 11:06:56;;;;;;;20.08;18.65;;;;;;;8.58;58.45;101033.75;5043338;28;20108;-72
2022/11/14 11:12:18;;;;;;;20.00;18.50;;;;;;;8.59;58.56;101022.78;5048120;28;20122;-72
2022/11/14 11:14:46;;;;;;;18.70;17.00;;;;;;;8.59;58.40;101022.78;5047785;28;20481;-72
2022/11/14 11:17:11;;;;;;;20.58;19.05;;;;;;;8.61;58.72;101025.22;5044489;28;20047;-72
2022/11/14 11:19:40;;;;;;;22.33;20.45;;;;;;;8.61;58.42;101026.06;5047436;28;20449;-72
2022/11/14 11:22:34;;;;;;;19.05;17.45;;;;;;;8.62;58.47;101027.72;5047719;28;20158;-72
2022/11/14 11:24:59;;;;;;;18.98;17.65;;;;;;;8.63;58.72;101015.06;5045265;28;20413;-72